sensor_id;sensor_type;location;lat;lon;timestamp;temperature;humidity
40059;SHT31;25763;49.972;8.568;2023-12-28T00:00:37;5.38;84.01
40059;SHT31;25763;49.972;8.568;2023-12-28T00:03:03;5.30;84.01
40059;SHT31;25763;49.972;8.568;2023-12-28T00:05:28;5.25;84.04
40059;SHT31;25763;49.972;8.568;2023-12-28T00:07:54;5.28;83.97
40059;SHT31;25763;49.972;8.568;2023-12-28T00:10:26;5.29;83.93
40059;SHT31;25763;49.972;8.568;2023-12-28T00:12:52;5.30;83.92
40059;SHT31;25763;49.972;8.568;2023-12-28T00:15:18;5.30;83.96
40059;SHT31;25763;49.972;8.568;2023-12-28T00:17:43;5.28;83.91
40059;SHT31;25763;49.972;8.568;2023-12-28T00:20:09;5.26;83.92
40059;SHT31;25763;49.972;8.568;2023-12-28T00:22:35;5.23;83.81
40059;SHT31;25763;49.972;8.568;2023-12-28T00:25:03;5.25;83.82
40059;SHT31;25763;49.972;8.568;2023-12-28T00:27:29;5.26;83.81
40059;SHT31;25763;49.972;8.568;2023-12-28T00:29:54;5.26;83.90
40059;SHT31;25763;49.972;8.568;2023-12-28T00:32:19;5.21;83.36
40059;SHT31;25763;49.972;8.568;2023-12-28T00:34:44;5.23;82.99
40059;SHT31;25763;49.972;8.568;2023-12-28T00:37:10;5.28;82.50
40059;SHT31;25763;49.972;8.568;2023-12-28T00:39:35;5.30;82.42
40059;SHT31;25763;49.972;8.568;2023-12-28T00:42:01;5.35;81.89
40059;SHT31;25763;49.972;8.568;2023-12-28T00:44:26;5.43;81.55
40059;SHT31;25763;49.972;8.568;2023-12-28T00:46:51;5.53;81.19
40059;SHT31;25763;49.972;8.568;2023-12-28T00:49:17;5.66;80.23
40059;SHT31;25763;49.972;8.568;2023-12-28T00:51:42;5.75;79.81
40059;SHT31;25763;49.972;8.568;2023-12-28T00:54:07;5.87;79.58
40059;SHT31;25763;49.972;8.568;2023-12-28T00:56:33;5.95;79.13
40059;SHT31;25763;49.972;8.568;2023-12-28T00:58:58;6.02;78.75
40059;SHT31;25763;49.972;8.568;2023-12-28T01:01:23;6.12;78.37
40059;SHT31;25763;49.972;8.568;2023-12-28T01:03:49;6.22;77.85
40059;SHT31;25763;49.972;8.568;2023-12-28T01:06:14;6.30;77.32
40059;SHT31;25763;49.972;8.568;2023-12-28T01:08:39;6.38;77.44
40059;SHT31;25763;49.972;8.568;2023-12-28T01:11:05;6.44;76.93
40059;SHT31;25763;49.972;8.568;2023-12-28T01:13:30;6.50;76.59
40059;SHT31;25763;49.972;8.568;2023-12-28T01:15:56;6.59;75.87
40059;SHT31;25763;49.972;8.568;2023-12-28T01:18:21;6.72;75.24
40059;SHT31;25763;49.972;8.568;2023-12-28T01:20:46;6.79;75.25
40059;SHT31;25763;49.972;8.568;2023-12-28T01:23:12;6.85;74.89
40059;SHT31;25763;49.972;8.568;2023-12-28T01:25:37;6.92;74.51
40059;SHT31;25763;49.972;8.568;2023-12-28T01:28:03;7.00;74.46
40059;SHT31;25763;49.972;8.568;2023-12-28T01:30:28;7.09;74.11
40059;SHT31;25763;49.972;8.568;2023-12-28T01:32:54;7.16;73.77
40059;SHT31;25763;49.972;8.568;2023-12-28T01:35:19;7.21;73.41
40059;SHT31;25763;49.972;8.568;2023-12-28T01:37:44;7.28;73.08
40059;SHT31;25763;49.972;8.568;2023-12-28T01:40:10;7.42;72.62
40059;SHT31;25763;49.972;8.568;2023-12-28T01:42:37;7.51;72.09
40059;SHT31;25763;49.972;8.568;2023-12-28T01:45:03;7.59;72.02
40059;SHT31;25763;49.972;8.568;2023-12-28T01:47:29;7.59;72.13
40059;SHT31;25763;49.972;8.568;2023-12-28T01:49:55;7.62;72.65
40059;SHT31;25763;49.972;8.568;2023-12-28T01:52:21;7.66;72.35
40059;SHT31;25763;49.972;8.568;2023-12-28T01:54:47;7.67;72.14
40059;SHT31;25763;49.972;8.568;2023-12-28T01:57:13;7.76;71.99
40059;SHT31;25763;49.972;8.568;2023-12-28T01:59:39;7.76;71.83
40059;SHT31;25763;49.972;8.568;2023-12-28T02:02:05;7.80;71.42
40059;SHT31;25763;49.972;8.568;2023-12-28T02:04:30;7.83;71.04
40059;SHT31;25763;49.972;8.568;2023-12-28T02:06:57;7.85;71.30
40059;SHT31;25763;49.972;8.568;2023-12-28T02:09:23;7.87;71.38
40059;SHT31;25763;49.972;8.568;2023-12-28T02:11:48;7.87;71.29
40059;SHT31;25763;49.972;8.568;2023-12-28T02:14:13;7.87;71.03
40059;SHT31;25763;49.972;8.568;2023-12-28T02:16:44;7.87;71.26
40059;SHT31;25763;49.972;8.568;2023-12-28T02:21:49;7.91;71.06
40059;SHT31;25763;49.972;8.568;2023-12-28T02:24:14;7.94;70.43
40059;SHT31;25763;49.972;8.568;2023-12-28T02:26:40;7.91;70.96
40059;SHT31;25763;49.972;8.568;2023-12-28T02:29:05;7.91;70.68
40059;SHT31;25763;49.972;8.568;2023-12-28T02:31:45;7.95;70.52
40059;SHT31;25763;49.972;8.568;2023-12-28T02:34:21;7.97;70.15
40059;SHT31;25763;49.972;8.568;2023-12-28T02:36:48;7.97;70.48
40059;SHT31;25763;49.972;8.568;2023-12-28T02:39:15;8.00;70.29
40059;SHT31;25763;49.972;8.568;2023-12-28T02:41:45;8.01;70.21
40059;SHT31;25763;49.972;8.568;2023-12-28T02:44:10;8.03;70.51
40059;SHT31;25763;49.972;8.568;2023-12-28T02:46:36;8.01;70.24
40059;SHT31;25763;49.972;8.568;2023-12-28T02:49:01;8.05;69.72
40059;SHT31;25763;49.972;8.568;2023-12-28T02:51:26;8.07;70.24
40059;SHT31;25763;49.972;8.568;2023-12-28T02:53:52;8.03;70.14
40059;SHT31;25763;49.972;8.568;2023-12-28T02:56:17;8.05;70.25
40059;SHT31;25763;49.972;8.568;2023-12-28T02:58:43;8.07;70.27
40059;SHT31;25763;49.972;8.568;2023-12-28T03:01:08;8.10;70.18
40059;SHT31;25763;49.972;8.568;2023-12-28T03:03:33;8.12;70.26
40059;SHT31;25763;49.972;8.568;2023-12-28T03:05:59;8.10;69.98
40059;SHT31;25763;49.972;8.568;2023-12-28T03:08:24;8.10;70.53
40059;SHT31;25763;49.972;8.568;2023-12-28T03:10:49;8.15;70.72
40059;SHT31;25763;49.972;8.568;2023-12-28T03:13:14;8.14;70.57
40059;SHT31;25763;49.972;8.568;2023-12-28T03:15:40;8.12;70.97
40059;SHT31;25763;49.972;8.568;2023-12-28T03:18:05;8.14;70.85
40059;SHT31;25763;49.972;8.568;2023-12-28T03:20:30;8.14;71.21
40059;SHT31;25763;49.972;8.568;2023-12-28T03:22:56;8.15;71.74
40059;SHT31;25763;49.972;8.568;2023-12-28T03:25:21;8.14;72.25
40059;SHT31;25763;49.972;8.568;2023-12-28T03:27:46;8.17;72.45
40059;SHT31;25763;49.972;8.568;2023-12-28T03:30:12;8.17;72.55
40059;SHT31;25763;49.972;8.568;2023-12-28T03:32:37;8.20;72.92
40059;SHT31;25763;49.972;8.568;2023-12-28T03:35:03;8.22;73.37
40059;SHT31;25763;49.972;8.568;2023-12-28T03:37:29;8.22;73.90
40059;SHT31;25763;49.972;8.568;2023-12-28T03:39:54;8.22;74.49
40059;SHT31;25763;49.972;8.568;2023-12-28T03:42:19;8.25;74.62
40059;SHT31;25763;49.972;8.568;2023-12-28T03:44:46;8.28;74.90
40059;SHT31;25763;49.972;8.568;2023-12-28T03:47:12;8.26;75.06
40059;SHT31;25763;49.972;8.568;2023-12-28T03:49:38;8.26;75.28
40059;SHT31;25763;49.972;8.568;2023-12-28T03:52:04;8.32;75.41
40059;SHT31;25763;49.972;8.568;2023-12-28T03:54:29;8.32;75.40
40059;SHT31;25763;49.972;8.568;2023-12-28T03:56:55;8.35;75.81
40059;SHT31;25763;49.972;8.568;2023-12-28T03:59:20;8.38;76.02
40059;SHT31;25763;49.972;8.568;2023-12-28T04:01:45;8.46;76.55
40059;SHT31;25763;49.972;8.568;2023-12-28T04:04:12;8.52;77.10
40059;SHT31;25763;49.972;8.568;2023-12-28T04:06:38;8.56;77.19
40059;SHT31;25763;49.972;8.568;2023-12-28T04:09:03;8.64;77.47
40059;SHT31;25763;49.972;8.568;2023-12-28T04:11:29;8.71;77.84
40059;SHT31;25763;49.972;8.568;2023-12-28T04:13:54;8.81;77.96
40059;SHT31;25763;49.972;8.568;2023-12-28T04:16:20;8.80;78.02
40059;SHT31;25763;49.972;8.568;2023-12-28T04:18:45;8.84;78.08
40059;SHT31;25763;49.972;8.568;2023-12-28T04:21:12;8.89;78.15
40059;SHT31;25763;49.972;8.568;2023-12-28T04:23:39;8.91;78.17
40059;SHT31;25763;49.972;8.568;2023-12-28T04:26:05;8.94;78.18
40059;SHT31;25763;49.972;8.568;2023-12-28T04:28:30;8.97;78.24
40059;SHT31;25763;49.972;8.568;2023-12-28T04:30:56;8.98;78.46
40059;SHT31;25763;49.972;8.568;2023-12-28T04:33:21;8.99;78.50
40059;SHT31;25763;49.972;8.568;2023-12-28T04:35:47;9.01;78.55
40059;SHT31;25763;49.972;8.568;2023-12-28T04:38:12;9.01;78.65
40059;SHT31;25763;49.972;8.568;2023-12-28T04:40:38;9.01;78.79
40059;SHT31;25763;49.972;8.568;2023-12-28T04:43:03;9.02;78.91
40059;SHT31;25763;49.972;8.568;2023-12-28T04:45:29;9.04;79.06
40059;SHT31;25763;49.972;8.568;2023-12-28T04:47:54;9.04;79.15
40059;SHT31;25763;49.972;8.568;2023-12-28T04:50:20;9.02;79.28
40059;SHT31;25763;49.972;8.568;2023-12-28T04:52:45;9.08;79.34
40059;SHT31;25763;49.972;8.568;2023-12-28T04:55:11;9.05;79.51
40059;SHT31;25763;49.972;8.568;2023-12-28T04:57:36;9.08;79.63
40059;SHT31;25763;49.972;8.568;2023-12-28T05:00:01;9.09;79.57
40059;SHT31;25763;49.972;8.568;2023-12-28T05:02:28;9.09;79.73
40059;SHT31;25763;49.972;8.568;2023-12-28T05:04:53;9.11;79.92
40059;SHT31;25763;49.972;8.568;2023-12-28T05:07:18;9.08;80.12
40059;SHT31;25763;49.972;8.568;2023-12-28T05:09:44;9.06;80.33
40059;SHT31;25763;49.972;8.568;2023-12-28T05:12:09;9.11;80.39
40059;SHT31;25763;49.972;8.568;2023-12-28T05:14:35;9.06;80.63
40059;SHT31;25763;49.972;8.568;2023-12-28T05:17:00;9.09;80.63
40059;SHT31;25763;49.972;8.568;2023-12-28T05:19:25;9.06;80.74
40059;SHT31;25763;49.972;8.568;2023-12-28T05:21:50;9.08;80.81
40059;SHT31;25763;49.972;8.568;2023-12-28T05:24:16;9.08;80.92
40059;SHT31;25763;49.972;8.568;2023-12-28T05:26:41;9.06;81.14
40059;SHT31;25763;49.972;8.568;2023-12-28T05:29:06;9.09;81.07
40059;SHT31;25763;49.972;8.568;2023-12-28T05:31:32;9.09;81.17
40059;SHT31;25763;49.972;8.568;2023-12-28T05:33:57;9.09;81.25
40059;SHT31;25763;49.972;8.568;2023-12-28T05:36:24;9.09;81.37
40059;SHT31;25763;49.972;8.568;2023-12-28T05:38:49;9.12;81.53
40059;SHT31;25763;49.972;8.568;2023-12-28T05:41:14;9.08;81.50
40059;SHT31;25763;49.972;8.568;2023-12-28T05:43:40;9.12;81.64
40059;SHT31;25763;49.972;8.568;2023-12-28T05:46:05;9.11;81.72
40059;SHT31;25763;49.972;8.568;2023-12-28T05:48:30;9.14;81.79
40059;SHT31;25763;49.972;8.568;2023-12-28T05:50:59;9.15;81.88
40059;SHT31;25763;49.972;8.568;2023-12-28T05:53:24;9.18;81.90
40059;SHT31;25763;49.972;8.568;2023-12-28T05:55:50;9.19;81.85
40059;SHT31;25763;49.972;8.568;2023-12-28T05:58:15;9.19;81.90
40059;SHT31;25763;49.972;8.568;2023-12-28T06:00:41;9.18;81.88
40059;SHT31;25763;49.972;8.568;2023-12-28T06:03:06;9.16;81.93
40059;SHT31;25763;49.972;8.568;2023-12-28T06:05:32;9.14;81.98
40059;SHT31;25763;49.972;8.568;2023-12-28T06:07:57;9.11;81.94
40059;SHT31;25763;49.972;8.568;2023-12-28T06:10:22;9.11;82.15
40059;SHT31;25763;49.972;8.568;2023-12-28T06:12:49;9.09;82.20
40059;SHT31;25763;49.972;8.568;2023-12-28T06:15:14;9.05;82.31
40059;SHT31;25763;49.972;8.568;2023-12-28T06:17:40;9.08;82.40
40059;SHT31;25763;49.972;8.568;2023-12-28T06:20:05;9.06;82.35
40059;SHT31;25763;49.972;8.568;2023-12-28T06:22:31;9.06;82.46
40059;SHT31;25763;49.972;8.568;2023-12-28T06:24:57;9.06;82.62
40059;SHT31;25763;49.972;8.568;2023-12-28T06:27:22;9.05;82.60
40059;SHT31;25763;49.972;8.568;2023-12-28T06:29:49;9.06;82.72
40059;SHT31;25763;49.972;8.568;2023-12-28T06:32:14;9.05;82.72
40059;SHT31;25763;49.972;8.568;2023-12-28T06:34:39;9.05;82.64
40059;SHT31;25763;49.972;8.568;2023-12-28T06:37:05;9.06;82.75
40059;SHT31;25763;49.972;8.568;2023-12-28T06:39:30;9.06;82.70
40059;SHT31;25763;49.972;8.568;2023-12-28T06:41:55;9.05;82.75
40059;SHT31;25763;49.972;8.568;2023-12-28T06:44:21;9.05;82.96
40059;SHT31;25763;49.972;8.568;2023-12-28T06:46:46;9.02;83.06
40059;SHT31;25763;49.972;8.568;2023-12-28T06:49:11;9.01;83.20
40059;SHT31;25763;49.972;8.568;2023-12-28T06:51:37;9.01;83.22
40059;SHT31;25763;49.972;8.568;2023-12-28T06:54:02;9.01;83.21
40059;SHT31;25763;49.972;8.568;2023-12-28T06:56:28;9.04;83.38
40059;SHT31;25763;49.972;8.568;2023-12-28T06:58:53;9.01;83.43
40059;SHT31;25763;49.972;8.568;2023-12-28T07:01:19;8.99;83.52
40059;SHT31;25763;49.972;8.568;2023-12-28T07:03:44;8.99;83.63
40059;SHT31;25763;49.972;8.568;2023-12-28T07:06:10;9.02;83.61
40059;SHT31;25763;49.972;8.568;2023-12-28T07:08:35;9.06;83.62
40059;SHT31;25763;49.972;8.568;2023-12-28T07:11:01;9.06;83.73
40059;SHT31;25763;49.972;8.568;2023-12-28T07:13:27;9.08;83.71
40059;SHT31;25763;49.972;8.568;2023-12-28T07:15:52;9.12;83.72
40059;SHT31;25763;49.972;8.568;2023-12-28T07:18:18;9.14;83.71
40059;SHT31;25763;49.972;8.568;2023-12-28T07:20:43;9.18;83.64
40059;SHT31;25763;49.972;8.568;2023-12-28T07:23:09;9.23;83.65
40059;SHT31;25763;49.972;8.568;2023-12-28T07:25:34;9.22;83.59
40059;SHT31;25763;49.972;8.568;2023-12-28T07:28:00;9.24;83.64
40059;SHT31;25763;49.972;8.568;2023-12-28T07:30:25;9.27;83.64
40059;SHT31;25763;49.972;8.568;2023-12-28T07:32:51;9.30;83.63
40059;SHT31;25763;49.972;8.568;2023-12-28T07:35:17;9.34;83.50
40059;SHT31;25763;49.972;8.568;2023-12-28T07:37:43;9.37;83.41
40059;SHT31;25763;49.972;8.568;2023-12-28T07:40:11;9.39;83.32
40059;SHT31;25763;49.972;8.568;2023-12-28T07:42:36;9.44;83.26
40059;SHT31;25763;49.972;8.568;2023-12-28T07:45:02;9.46;83.15
40059;SHT31;25763;49.972;8.568;2023-12-28T07:47:27;9.46;83.09
40059;SHT31;25763;49.972;8.568;2023-12-28T07:49:52;9.43;83.16
40059;SHT31;25763;49.972;8.568;2023-12-28T07:52:18;9.46;83.13
40059;SHT31;25763;49.972;8.568;2023-12-28T07:54:43;9.50;83.10
40059;SHT31;25763;49.972;8.568;2023-12-28T07:57:08;9.50;83.02
40059;SHT31;25763;49.972;8.568;2023-12-28T07:59:34;9.48;83.00
40059;SHT31;25763;49.972;8.568;2023-12-28T08:01:59;9.47;83.10
40059;SHT31;25763;49.972;8.568;2023-12-28T08:04:24;9.50;83.06
40059;SHT31;25763;49.972;8.568;2023-12-28T08:06:50;9.47;83.16
40059;SHT31;25763;49.972;8.568;2023-12-28T08:09:15;9.47;83.26
40059;SHT31;25763;49.972;8.568;2023-12-28T08:11:40;9.43;83.49
40059;SHT31;25763;49.972;8.568;2023-12-28T08:14:05;9.44;83.49
40059;SHT31;25763;49.972;8.568;2023-12-28T08:16:31;9.43;83.62
40059;SHT31;25763;49.972;8.568;2023-12-28T08:18:56;9.41;83.64
40059;SHT31;25763;49.972;8.568;2023-12-28T08:21:22;9.43;83.61
40059;SHT31;25763;49.972;8.568;2023-12-28T08:23:47;9.41;83.52
40059;SHT31;25763;49.972;8.568;2023-12-28T08:26:12;9.43;83.52
40059;SHT31;25763;49.972;8.568;2023-12-28T08:28:38;9.43;83.49
40059;SHT31;25763;49.972;8.568;2023-12-28T08:31:03;9.46;83.43
40059;SHT31;25763;49.972;8.568;2023-12-28T08:33:29;9.46;83.44
40059;SHT31;25763;49.972;8.568;2023-12-28T08:35:55;9.47;83.41
40059;SHT31;25763;49.972;8.568;2023-12-28T08:38:20;9.48;83.27
40059;SHT31;25763;49.972;8.568;2023-12-28T08:40:45;9.50;83.22
40059;SHT31;25763;49.972;8.568;2023-12-28T08:43:11;9.51;83.15
40059;SHT31;25763;49.972;8.568;2023-12-28T08:45:36;9.51;83.14
40059;SHT31;25763;49.972;8.568;2023-12-28T08:48:02;9.51;83.18
40059;SHT31;25763;49.972;8.568;2023-12-28T08:50:28;9.52;83.03
40059;SHT31;25763;49.972;8.568;2023-12-28T08:52:53;9.52;83.10
40059;SHT31;25763;49.972;8.568;2023-12-28T08:55:18;9.54;83.02
40059;SHT31;25763;49.972;8.568;2023-12-28T08:57:44;9.54;83.00
40059;SHT31;25763;49.972;8.568;2023-12-28T09:00:10;9.52;82.98
40059;SHT31;25763;49.972;8.568;2023-12-28T09:02:36;9.57;82.95
40059;SHT31;25763;49.972;8.568;2023-12-28T09:05:01;9.59;82.86
40059;SHT31;25763;49.972;8.568;2023-12-28T09:07:26;9.61;82.81
40059;SHT31;25763;49.972;8.568;2023-12-28T09:09:52;9.65;82.74
40059;SHT31;25763;49.972;8.568;2023-12-28T09:12:17;9.69;82.76
40059;SHT31;25763;49.972;8.568;2023-12-28T09:14:43;9.67;82.67
40059;SHT31;25763;49.972;8.568;2023-12-28T09:17:08;9.69;82.62
40059;SHT31;25763;49.972;8.568;2023-12-28T09:19:33;9.79;82.50
40059;SHT31;25763;49.972;8.568;2023-12-28T09:21:59;9.83;82.35
40059;SHT31;25763;49.972;8.568;2023-12-28T09:24:24;9.86;82.22
40059;SHT31;25763;49.972;8.568;2023-12-28T09:26:49;9.93;82.01
40059;SHT31;25763;49.972;8.568;2023-12-28T09:29:15;9.96;81.94
40059;SHT31;25763;49.972;8.568;2023-12-28T09:31:40;10.02;81.73
40059;SHT31;25763;49.972;8.568;2023-12-28T09:34:05;10.03;81.70
40059;SHT31;25763;49.972;8.568;2023-12-28T09:36:31;10.06;81.60
40059;SHT31;25763;49.972;8.568;2023-12-28T09:38:56;10.12;81.42
40059;SHT31;25763;49.972;8.568;2023-12-28T09:41:26;10.14;81.46
40059;SHT31;25763;49.972;8.568;2023-12-28T09:44:14;10.23;81.05
40059;SHT31;25763;49.972;8.568;2023-12-28T09:46:43;10.30;80.80
40059;SHT31;25763;49.972;8.568;2023-12-28T09:49:10;10.38;80.49
40059;SHT31;25763;49.972;8.568;2023-12-28T09:51:36;10.49;80.27
40059;SHT31;25763;49.972;8.568;2023-12-28T09:54:03;10.51;79.77
40059;SHT31;25763;49.972;8.568;2023-12-28T09:56:29;10.64;79.60
40059;SHT31;25763;49.972;8.568;2023-12-28T09:58:56;10.71;79.30
40059;SHT31;25763;49.972;8.568;2023-12-28T10:01:22;10.79;78.97
40059;SHT31;25763;49.972;8.568;2023-12-28T10:03:48;10.77;78.77
40059;SHT31;25763;49.972;8.568;2023-12-28T10:06:13;10.83;78.43
40059;SHT31;25763;49.972;8.568;2023-12-28T10:08:48;10.80;78.47
40059;SHT31;25763;49.972;8.568;2023-12-28T10:11:15;10.72;78.53
40059;SHT31;25763;49.972;8.568;2023-12-28T10:13:41;10.67;78.51
40059;SHT31;25763;49.972;8.568;2023-12-28T10:16:09;10.65;78.56
40059;SHT31;25763;49.972;8.568;2023-12-28T10:18:35;10.67;78.57
40059;SHT31;25763;49.972;8.568;2023-12-28T10:21:01;10.71;78.14
40059;SHT31;25763;49.972;8.568;2023-12-28T10:23:26;10.68;78.01
40059;SHT31;25763;49.972;8.568;2023-12-28T10:25:56;10.72;77.90
40059;SHT31;25763;49.972;8.568;2023-12-28T10:28:21;10.87;77.90
40059;SHT31;25763;49.972;8.568;2023-12-28T10:30:54;11.08;77.27
40059;SHT31;25763;49.972;8.568;2023-12-28T10:33:20;11.28;76.13
40059;SHT31;25763;49.972;8.568;2023-12-28T10:35:45;11.22;75.81
40059;SHT31;25763;49.972;8.568;2023-12-28T10:38:13;11.11;76.35
40059;SHT31;25763;49.972;8.568;2023-12-28T10:40:41;11.15;76.62
40059;SHT31;25763;49.972;8.568;2023-12-28T10:43:08;11.21;76.42
40059;SHT31;25763;49.972;8.568;2023-12-28T10:45:37;11.27;76.04
40059;SHT31;25763;49.972;8.568;2023-12-28T10:48:07;11.28;76.17
40059;SHT31;25763;49.972;8.568;2023-12-28T10:50:39;11.31;76.17
40059;SHT31;25763;49.972;8.568;2023-12-28T10:53:36;11.35;76.07
40059;SHT31;25763;49.972;8.568;2023-12-28T10:58:49;11.28;76.21
40059;SHT31;25763;49.972;8.568;2023-12-28T11:01:26;11.27;76.13
40059;SHT31;25763;49.972;8.568;2023-12-28T11:03:59;11.38;76.14
40059;SHT31;25763;49.972;8.568;2023-12-28T11:06:30;11.10;76.43
40059;SHT31;25763;49.972;8.568;2023-12-28T11:08:57;11.00;77.04
40059;SHT31;25763;49.972;8.568;2023-12-28T11:11:23;11.11;76.84
40059;SHT31;25763;49.972;8.568;2023-12-28T11:13:49;11.27;76.41
40059;SHT31;25763;49.972;8.568;2023-12-28T11:16:16;11.27;76.41
40059;SHT31;25763;49.972;8.568;2023-12-28T11:18:43;11.42;76.30
40059;SHT31;25763;49.972;8.568;2023-12-28T11:21:09;11.41;75.89
40059;SHT31;25763;49.972;8.568;2023-12-28T11:23:34;11.48;75.51
40059;SHT31;25763;49.972;8.568;2023-12-28T11:26:00;11.44;75.52
40059;SHT31;25763;49.972;8.568;2023-12-28T11:28:25;11.48;75.05
40059;SHT31;25763;49.972;8.568;2023-12-28T11:30:52;11.53;75.12
40059;SHT31;25763;49.972;8.568;2023-12-28T11:33:17;11.48;74.92
40059;SHT31;25763;49.972;8.568;2023-12-28T11:35:43;11.49;75.19
40059;SHT31;25763;49.972;8.568;2023-12-28T11:38:09;11.55;75.01
40059;SHT31;25763;49.972;8.568;2023-12-28T11:40:45;11.66;74.45
40059;SHT31;25763;49.972;8.568;2023-12-28T11:43:19;11.61;73.66
40059;SHT31;25763;49.972;8.568;2023-12-28T11:45:49;11.73;74.05
40059;SHT31;25763;49.972;8.568;2023-12-28T11:48:25;11.65;73.92
40059;SHT31;25763;49.972;8.568;2023-12-28T11:50:57;11.49;73.77
40059;SHT31;25763;49.972;8.568;2023-12-28T11:53:23;11.59;73.27
40059;SHT31;25763;49.972;8.568;2023-12-28T11:55:49;11.76;73.14
40059;SHT31;25763;49.972;8.568;2023-12-28T11:58:16;11.73;72.59
40059;SHT31;25763;49.972;8.568;2023-12-28T12:00:42;11.73;72.45
40059;SHT31;25763;49.972;8.568;2023-12-28T12:03:10;11.74;72.36
40059;SHT31;25763;49.972;8.568;2023-12-28T12:05:35;11.76;72.38
40059;SHT31;25763;49.972;8.568;2023-12-28T12:08:01;11.71;72.56
40059;SHT31;25763;49.972;8.568;2023-12-28T12:10:26;11.66;72.63
40059;SHT31;25763;49.972;8.568;2023-12-28T12:12:52;11.56;72.89
40059;SHT31;25763;49.972;8.568;2023-12-28T12:15:18;11.55;72.95
40059;SHT31;25763;49.972;8.568;2023-12-28T12:17:43;11.55;73.08
40059;SHT31;25763;49.972;8.568;2023-12-28T12:20:09;11.63;73.11
40059;SHT31;25763;49.972;8.568;2023-12-28T12:22:35;11.58;72.80
40059;SHT31;25763;49.972;8.568;2023-12-28T12:25:02;11.59;73.05
40059;SHT31;25763;49.972;8.568;2023-12-28T12:27:29;11.69;73.14
40059;SHT31;25763;49.972;8.568;2023-12-28T12:29:54;11.65;73.27
40059;SHT31;25763;49.972;8.568;2023-12-28T12:32:20;11.74;73.40
40059;SHT31;25763;49.972;8.568;2023-12-28T12:34:47;11.86;73.36
40059;SHT31;25763;49.972;8.568;2023-12-28T12:37:12;11.90;73.25
40059;SHT31;25763;49.972;8.568;2023-12-28T12:39:38;11.84;73.60
40059;SHT31;25763;49.972;8.568;2023-12-28T12:42:03;11.83;73.68
40059;SHT31;25763;49.972;8.568;2023-12-28T12:44:29;11.73;74.26
40059;SHT31;25763;49.972;8.568;2023-12-28T12:46:58;11.81;74.27
40059;SHT31;25763;49.972;8.568;2023-12-28T12:49:24;11.77;74.33
40059;SHT31;25763;49.972;8.568;2023-12-28T12:51:50;11.71;74.42
40059;SHT31;25763;49.972;8.568;2023-12-28T12:54:17;11.76;74.40
40059;SHT31;25763;49.972;8.568;2023-12-28T12:56:44;11.77;74.53
40059;SHT31;25763;49.972;8.568;2023-12-28T12:59:10;11.66;74.66
40059;SHT31;25763;49.972;8.568;2023-12-28T13:01:41;11.56;75.03
40059;SHT31;25763;49.972;8.568;2023-12-28T13:04:06;11.42;75.36
40059;SHT31;25763;49.972;8.568;2023-12-28T13:06:32;11.24;76.08
40059;SHT31;25763;49.972;8.568;2023-12-28T13:08:57;11.15;76.44
40059;SHT31;25763;49.972;8.568;2023-12-28T13:11:22;11.12;76.63
40059;SHT31;25763;49.972;8.568;2023-12-28T13:13:52;11.15;76.78
40059;SHT31;25763;49.972;8.568;2023-12-28T13:16:17;11.22;76.67
40059;SHT31;25763;49.972;8.568;2023-12-28T13:18:42;11.29;76.64
40059;SHT31;25763;49.972;8.568;2023-12-28T13:21:07;11.29;76.62
40059;SHT31;25763;49.972;8.568;2023-12-28T13:23:33;11.38;76.58
40059;SHT31;25763;49.972;8.568;2023-12-28T13:25:58;11.46;76.47
40059;SHT31;25763;49.972;8.568;2023-12-28T13:28:23;11.49;76.63
40059;SHT31;25763;49.972;8.568;2023-12-28T13:30:49;11.44;76.70
40059;SHT31;25763;49.972;8.568;2023-12-28T13:33:16;11.45;76.73
40059;SHT31;25763;49.972;8.568;2023-12-28T13:35:42;11.42;76.85
40059;SHT31;25763;49.972;8.568;2023-12-28T13:38:07;11.53;76.91
40059;SHT31;25763;49.972;8.568;2023-12-28T13:40:32;11.52;76.86
40059;SHT31;25763;49.972;8.568;2023-12-28T13:42:58;11.52;77.11
40059;SHT31;25763;49.972;8.568;2023-12-28T13:45:23;11.55;77.12
40059;SHT31;25763;49.972;8.568;2023-12-28T13:47:49;11.55;77.20
40059;SHT31;25763;49.972;8.568;2023-12-28T13:50:14;11.56;77.47
40059;SHT31;25763;49.972;8.568;2023-12-28T13:52:40;11.49;77.69
40059;SHT31;25763;49.972;8.568;2023-12-28T13:55:06;11.36;78.09
40059;SHT31;25763;49.972;8.568;2023-12-28T13:57:31;11.39;78.23
40059;SHT31;25763;49.972;8.568;2023-12-28T13:59:57;11.45;78.33
40059;SHT31;25763;49.972;8.568;2023-12-28T14:02:26;11.46;78.31
40059;SHT31;25763;49.972;8.568;2023-12-28T14:04:51;11.39;78.60
40059;SHT31;25763;49.972;8.568;2023-12-28T14:07:16;11.32;78.99
40059;SHT31;25763;49.972;8.568;2023-12-28T14:09:42;11.22;79.77
40059;SHT31;25763;49.972;8.568;2023-12-28T14:12:07;11.12;80.71
40059;SHT31;25763;49.972;8.568;2023-12-28T14:14:33;11.01;81.23
40059;SHT31;25763;49.972;8.568;2023-12-28T14:16:58;10.99;81.73
40059;SHT31;25763;49.972;8.568;2023-12-28T14:19:23;10.90;82.16
40059;SHT31;25763;49.972;8.568;2023-12-28T14:21:49;10.85;82.33
40059;SHT31;25763;49.972;8.568;2023-12-28T14:24:16;10.85;82.47
40059;SHT31;25763;49.972;8.568;2023-12-28T14:26:41;10.80;82.61
40059;SHT31;25763;49.972;8.568;2023-12-28T14:29:10;10.76;82.96
40059;SHT31;25763;49.972;8.568;2023-12-28T14:31:36;10.67;83.35
40059;SHT31;25763;49.972;8.568;2023-12-28T14:34:02;10.67;83.55
40059;SHT31;25763;49.972;8.568;2023-12-28T14:36:35;10.68;83.56
40059;SHT31;25763;49.972;8.568;2023-12-28T14:39:04;10.69;83.65
40059;SHT31;25763;49.972;8.568;2023-12-28T14:41:36;10.64;83.72
40059;SHT31;25763;49.972;8.568;2023-12-28T14:44:01;10.58;83.92
40059;SHT31;25763;49.972;8.568;2023-12-28T14:46:27;10.62;83.90
40059;SHT31;25763;49.972;8.568;2023-12-28T14:48:53;10.65;83.84
40059;SHT31;25763;49.972;8.568;2023-12-28T14:51:19;10.64;83.89
40059;SHT31;25763;49.972;8.568;2023-12-28T14:53:45;10.58;84.10
40059;SHT31;25763;49.972;8.568;2023-12-28T14:56:10;10.52;84.01
40059;SHT31;25763;49.972;8.568;2023-12-28T14:58:37;10.51;84.08
40059;SHT31;25763;49.972;8.568;2023-12-28T15:01:03;10.55;84.04
40059;SHT31;25763;49.972;8.568;2023-12-28T15:03:28;10.51;84.04
40059;SHT31;25763;49.972;8.568;2023-12-28T15:05:53;10.52;83.85
40059;SHT31;25763;49.972;8.568;2023-12-28T15:08:19;10.49;83.98
40059;SHT31;25763;49.972;8.568;2023-12-28T15:10:45;10.44;83.98
40059;SHT31;25763;49.972;8.568;2023-12-28T15:13:10;10.34;84.04
40059;SHT31;25763;49.972;8.568;2023-12-28T15:15:36;10.27;84.13
40059;SHT31;25763;49.972;8.568;2023-12-28T15:18:02;10.30;84.06
40059;SHT31;25763;49.972;8.568;2023-12-28T15:20:28;10.26;84.16
40059;SHT31;25763;49.972;8.568;2023-12-28T15:22:54;10.18;84.12
40059;SHT31;25763;49.972;8.568;2023-12-28T15:25:19;10.08;84.08
40059;SHT31;25763;49.972;8.568;2023-12-28T15:27:46;10.03;83.85
40059;SHT31;25763;49.972;8.568;2023-12-28T15:30:11;9.99;83.60
40059;SHT31;25763;49.972;8.568;2023-12-28T15:32:39;9.98;83.54
40059;SHT31;25763;49.972;8.568;2023-12-28T15:35:05;9.95;83.23
40059;SHT31;25763;49.972;8.568;2023-12-28T15:37:31;9.93;83.15